sensor_id;sensor_type;location;lat;lon;timestamp;P1;durP1;ratioP1;P2;durP2;ratioP2
60468;SDS011;46316;47.582;10.238;2022-08-01T00:01:02;2.83;;;1.90;;
60468;SDS011;46316;47.582;10.238;2022-08-01T00:03:27;4.05;;;2.13;;
60468;SDS011;46316;47.582;10.238;2022-08-01T00:05:53;3.17;;;2.47;;
60468;SDS011;46316;47.582;10.238;2022-08-01T00:08:18;2.22;;;2.03;;
60468;SDS011;46316;47.582;10.238;2022-08-01T00:10:44;3.17;;;2.10;;
60468;SDS011;46316;47.582;10.238;2022-08-01T00:13:09;2.75;;;2.10;;
60468;SDS011;46316;47.582;10.238;2022-08-01T00:15:35;4.75;;;2.00;;
60468;SDS011;46316;47.582;10.238;2022-08-01T00:18:00;6.32;;;2.15;;
60468;SDS011;46316;47.582;10.238;2022-08-01T00:20:26;3.55;;;2.13;;
60468;SDS011;46316;47.582;10.238;2022-08-01T00:22:51;2.33;;;2.13;;
60468;SDS011;46316;47.582;10.238;2022-08-01T00:25:17;2.20;;;2.10;;
60468;SDS011;46316;47.582;10.238;2022-08-01T00:27:43;3.63;;;2.20;;
60468;SDS011;46316;47.582;10.238;2022-08-01T00:30:08;2.60;;;2.40;;
60468;SDS011;46316;47.582;10.238;2022-08-01T00:32:34;3.92;;;2.10;;
60468;SDS011;46316;47.582;10.238;2022-08-01T00:34:59;2.42;;;2.22;;
60468;SDS011;46316;47.582;10.238;2022-08-01T00:37:25;2.60;;;2.10;;
60468;SDS011;46316;47.582;10.238;2022-08-01T00:39:50;5.20;;;2.38;;
60468;SDS011;46316;47.582;10.238;2022-08-01T00:42:16;2.38;;;2.17;;
60468;SDS011;46316;47.582;10.238;2022-08-01T00:44:41;2.30;;;2.10;;
60468;SDS011;46316;47.582;10.238;2022-08-01T00:47:07;3.55;;;2.25;;
60468;SDS011;46316;47.582;10.238;2022-08-01T00:49:33;2.50;;;2.30;;
60468;SDS011;46316;47.582;10.238;2022-08-01T00:51:59;2.60;;;2.40;;
60468;SDS011;46316;47.582;10.238;2022-08-01T00:54:25;3.05;;;2.60;;
60468;SDS011;46316;47.582;10.238;2022-08-01T00:56:52;3.97;;;2.28;;
60468;SDS011;46316;47.582;10.238;2022-08-01T00:59:18;2.90;;;2.38;;
60468;SDS011;46316;47.582;10.238;2022-08-01T01:01:46;2.67;;;2.47;;
60468;SDS011;46316;47.582;10.238;2022-08-01T01:04:12;3.63;;;2.28;;
60468;SDS011;46316;47.582;10.238;2022-08-01T01:09:27;4.18;;;2.60;;
60468;SDS011;46316;47.582;10.238;2022-08-01T01:16:59;2.40;;;2.15;;
60468;SDS011;46316;47.582;10.238;2022-08-01T01:19:28;4.30;;;2.42;;
60468;SDS011;46316;47.582;10.238;2022-08-01T01:22:06;2.90;;;2.30;;
60468;SDS011;46316;47.582;10.238;2022-08-01T01:25:07;2.95;;;2.65;;
60468;SDS011;46316;47.582;10.238;2022-08-01T01:30:22;2.58;;;2.30;;
60468;SDS011;46316;47.582;10.238;2022-08-01T01:32:50;3.00;;;2.42;;
60468;SDS011;46316;47.582;10.238;2022-08-01T01:35:22;3.25;;;2.55;;
60468;SDS011;46316;47.582;10.238;2022-08-01T01:37:53;5.38;;;2.80;;
60468;SDS011;46316;47.582;10.238;2022-08-01T01:40:25;2.60;;;2.40;;
60468;SDS011;46316;47.582;10.238;2022-08-01T01:42:52;2.90;;;2.60;;
60468;SDS011;46316;47.582;10.238;2022-08-01T01:45:20;3.55;;;2.97;;
60468;SDS011;46316;47.582;10.238;2022-08-01T01:47:48;2.90;;;2.60;;
60468;SDS011;46316;47.582;10.238;2022-08-01T01:50:15;2.38;;;2.17;;
60468;SDS011;46316;47.582;10.238;2022-08-01T01:52:42;2.72;;;2.50;;
60468;SDS011;46316;47.582;10.238;2022-08-01T01:55:09;4.35;;;2.90;;
60468;SDS011;46316;47.582;10.238;2022-08-01T01:57:38;3.45;;;2.30;;
60468;SDS011;46316;47.582;10.238;2022-08-01T02:00:06;3.28;;;2.45;;
60468;SDS011;46316;47.582;10.238;2022-08-01T02:02:33;2.97;;;2.72;;
60468;SDS011;46316;47.582;10.238;2022-08-01T02:05:01;3.15;;;2.85;;
60468;SDS011;46316;47.582;10.238;2022-08-01T02:07:27;3.22;;;2.92;;
60468;SDS011;46316;47.582;10.238;2022-08-01T02:09:54;4.53;;;2.80;;
60468;SDS011;46316;47.582;10.238;2022-08-01T02:12:22;4.78;;;3.40;;
60468;SDS011;46316;47.582;10.238;2022-08-01T02:14:50;3.78;;;2.78;;
60468;SDS011;46316;47.582;10.238;2022-08-01T02:17:17;3.35;;;3.05;;
60468;SDS011;46316;47.582;10.238;2022-08-01T02:19:44;3.28;;;2.95;;
60468;SDS011;46316;47.582;10.238;2022-08-01T02:22:11;3.33;;;3.03;;
60468;SDS011;46316;47.582;10.238;2022-08-01T02:27:44;3.05;;;2.75;;
60468;SDS011;46316;47.582;10.238;2022-08-01T02:30:15;3.10;;;2.80;;
60468;SDS011;46316;47.582;10.238;2022-08-01T02:32:49;5.68;;;2.83;;
60468;SDS011;46316;47.582;10.238;2022-08-01T02:35:20;4.30;;;2.63;;
60468;SDS011;46316;47.582;10.238;2022-08-01T02:37:57;4.80;;;2.92;;
60468;SDS011;46316;47.582;10.238;2022-08-01T02:40:24;4.47;;;2.63;;
60468;SDS011;46316;47.582;10.238;2022-08-01T02:42:53;5.28;;;3.10;;
60468;SDS011;46316;47.582;10.238;2022-08-01T02:45:22;3.53;;;3.20;;
60468;SDS011;46316;47.582;10.238;2022-08-01T02:47:49;4.30;;;2.75;;
60468;SDS011;46316;47.582;10.238;2022-08-01T02:50:19;2.60;;;2.40;;
60468;SDS011;46316;47.582;10.238;2022-08-01T02:52:47;4.57;;;2.90;;
60468;SDS011;46316;47.582;10.238;2022-08-01T02:55:14;3.40;;;2.55;;
60468;SDS011;46316;47.582;10.238;2022-08-01T02:57:41;3.15;;;2.85;;
60468;SDS011;46316;47.582;10.238;2022-08-01T03:00:08;2.72;;;2.42;;
60468;SDS011;46316;47.582;10.238;2022-08-01T03:02:34;3.15;;;2.95;;
60468;SDS011;46316;47.582;10.238;2022-08-01T03:05:02;4.20;;;3.35;;
60468;SDS011;46316;47.582;10.238;2022-08-01T03:07:28;3.10;;;2.80;;
60468;SDS011;46316;47.582;10.238;2022-08-01T03:09:55;3.13;;;2.70;;
60468;SDS011;46316;47.582;10.238;2022-08-01T03:12:24;3.40;;;3.03;;
60468;SDS011;46316;47.582;10.238;2022-08-01T03:14:54;3.67;;;2.80;;
60468;SDS011;46316;47.582;10.238;2022-08-01T03:17:22;3.38;;;3.00;;
60468;SDS011;46316;47.582;10.238;2022-08-01T03:19:50;3.30;;;2.85;;
60468;SDS011;46316;47.582;10.238;2022-08-01T03:22:17;3.72;;;2.80;;
60468;SDS011;46316;47.582;10.238;2022-08-01T03:24:45;4.97;;;2.85;;
60468;SDS011;46316;47.582;10.238;2022-08-01T03:27:15;3.47;;;2.75;;
60468;SDS011;46316;47.582;10.238;2022-08-01T03:29:42;3.45;;;2.85;;
60468;SDS011;46316;47.582;10.238;2022-08-01T03:32:10;3.85;;;3.45;;
60468;SDS011;46316;47.582;10.238;2022-08-01T03:34:37;5.00;;;3.20;;
60468;SDS011;46316;47.582;10.238;2022-08-01T03:37:23;3.88;;;2.97;;
60468;SDS011;46316;47.582;10.238;2022-08-01T03:40:00;3.45;;;3.15;;
60468;SDS011;46316;47.582;10.238;2022-08-01T03:42:33;6.75;;;2.95;;
60468;SDS011;46316;47.582;10.238;2022-08-01T03:45:04;4.25;;;3.15;;
60468;SDS011;46316;47.582;10.238;2022-08-01T03:47:35;5.28;;;3.00;;
60468;SDS011;46316;47.582;10.238;2022-08-01T03:50:02;2.90;;;2.70;;
60468;SDS011;46316;47.582;10.238;2022-08-01T03:52:30;4.45;;;3.15;;
60468;SDS011;46316;47.582;10.238;2022-08-01T03:54:58;3.60;;;2.80;;
60468;SDS011;46316;47.582;10.238;2022-08-01T03:57:34;4.05;;;3.22;;
60468;SDS011;46316;47.582;10.238;2022-08-01T04:00:00;3.30;;;3.00;;
60468;SDS011;46316;47.582;10.238;2022-08-01T04:02:30;6.38;;;3.38;;
60468;SDS011;46316;47.582;10.238;2022-08-01T04:04:56;6.70;;;3.65;;
60468;SDS011;46316;47.582;10.238;2022-08-01T04:07:24;3.08;;;2.83;;
60468;SDS011;46316;47.582;10.238;2022-08-01T04:09:54;4.22;;;2.90;;
60468;SDS011;46316;47.582;10.238;2022-08-01T04:12:20;3.42;;;3.13;;
60468;SDS011;46316;47.582;10.238;2022-08-01T04:14:46;3.55;;;2.92;;
60468;SDS011;46316;47.582;10.238;2022-08-01T04:17:12;3.67;;;3.10;;
60468;SDS011;46316;47.582;10.238;2022-08-01T04:19:38;3.17;;;2.88;;
60468;SDS011;46316;47.582;10.238;2022-08-01T04:22:04;4.72;;;3.35;;
60468;SDS011;46316;47.582;10.238;2022-08-01T04:24:30;3.00;;;2.50;;
60468;SDS011;46316;47.582;10.238;2022-08-01T04:26:58;3.85;;;2.85;;
60468;SDS011;46316;47.582;10.238;2022-08-01T04:29:26;4.18;;;2.60;;
60468;SDS011;46316;47.582;10.238;2022-08-01T04:31:54;3.17;;;2.80;;
60468;SDS011;46316;47.582;10.238;2022-08-01T04:34:22;2.97;;;2.67;;
60468;SDS011;46316;47.582;10.238;2022-08-01T04:36:50;4.50;;;2.45;;
60468;SDS011;46316;47.582;10.238;2022-08-01T04:39:19;3.92;;;2.50;;
60468;SDS011;46316;47.582;10.238;2022-08-01T04:41:48;3.72;;;2.15;;
60468;SDS011;46316;47.582;10.238;2022-08-01T04:44:15;2.83;;;2.20;;
60468;SDS011;46316;47.582;10.238;2022-08-01T04:46:41;2.25;;;2.00;;
60468;SDS011;46316;47.582;10.238;2022-08-01T04:49:08;3.05;;;2.30;;
60468;SDS011;46316;47.582;10.238;2022-08-01T04:51:36;2.35;;;2.08;;
60468;SDS011;46316;47.582;10.238;2022-08-01T04:54:13;2.28;;;2.08;;
60468;SDS011;46316;47.582;10.238;2022-08-01T04:56:39;2.58;;;1.98;;
60468;SDS011;46316;47.582;10.238;2022-08-01T04:59:06;5.40;;;2.25;;
60468;SDS011;46316;47.582;10.238;2022-08-01T05:01:50;2.20;;;2.00;;
60468;SDS011;46316;47.582;10.238;2022-08-01T05:04:15;4.30;;;2.30;;
60468;SDS011;46316;47.582;10.238;2022-08-01T05:06:41;5.63;;;2.60;;
60468;SDS011;46316;47.582;10.238;2022-08-01T05:09:06;7.93;;;2.38;;
60468;SDS011;46316;47.582;10.238;2022-08-01T05:11:32;6.40;;;2.35;;
60468;SDS011;46316;47.582;10.238;2022-08-01T05:13:57;2.58;;;2.30;;
60468;SDS011;46316;47.582;10.238;2022-08-01T05:16:23;4.18;;;2.10;;
60468;SDS011;46316;47.582;10.238;2022-08-01T05:18:48;2.90;;;1.88;;
60468;SDS011;46316;47.582;10.238;2022-08-01T05:21:14;3.55;;;2.45;;
60468;SDS011;46316;47.582;10.238;2022-08-01T05:23:40;2.63;;;2.10;;
60468;SDS011;46316;47.582;10.238;2022-08-01T05:26:05;2.17;;;1.98;;
60468;SDS011;46316;47.582;10.238;2022-08-01T05:28:31;2.40;;;2.20;;
60468;SDS011;46316;47.582;10.238;2022-08-01T05:30:56;4.15;;;2.72;;
60468;SDS011;46316;47.582;10.238;2022-08-01T05:33:22;3.90;;;2.30;;
60468;SDS011;46316;47.582;10.238;2022-08-01T05:35:47;1.95;;;1.77;;
60468;SDS011;46316;47.582;10.238;2022-08-01T05:38:13;3.05;;;2.50;;
60468;SDS011;46316;47.582;10.238;2022-08-01T05:40:38;5.50;;;2.30;;
60468;SDS011;46316;47.582;10.238;2022-08-01T05:43:04;2.92;;;1.80;;
60468;SDS011;46316;47.582;10.238;2022-08-01T05:45:29;4.43;;;2.90;;
60468;SDS011;46316;47.582;10.238;2022-08-01T05:47:55;9.20;;;2.25;;
60468;SDS011;46316;47.582;10.238;2022-08-01T05:50:20;6.20;;;2.28;;
60468;SDS011;46316;47.582;10.238;2022-08-01T05:52:46;8.48;;;2.45;;
60468;SDS011;46316;47.582;10.238;2022-08-01T05:55:11;5.55;;;2.60;;
60468;SDS011;46316;47.582;10.238;2022-08-01T05:57:37;7.38;;;2.20;;
60468;SDS011;46316;47.582;10.238;2022-08-01T06:00:02;3.83;;;2.70;;
60468;SDS011;46316;47.582;10.238;2022-08-01T06:02:28;3.65;;;1.98;;
60468;SDS011;46316;47.582;10.238;2022-08-01T06:04:54;2.88;;;2.00;;
60468;SDS011;46316;47.582;10.238;2022-08-01T06:07:20;5.30;;;2.10;;
60468;SDS011;46316;47.582;10.238;2022-08-01T06:09:45;4.40;;;2.03;;
60468;SDS011;46316;47.582;10.238;2022-08-01T06:12:11;3.67;;;2.13;;
60468;SDS011;46316;47.582;10.238;2022-08-01T06:14:36;2.65;;;2.00;;
60468;SDS011;46316;47.582;10.238;2022-08-01T06:17:02;2.10;;;1.90;;
60468;SDS011;46316;47.582;10.238;2022-08-01T06:19:28;5.25;;;2.25;;
60468;SDS011;46316;47.582;10.238;2022-08-01T06:22:00;2.83;;;2.10;;
60468;SDS011;46316;47.582;10.238;2022-08-01T06:24:25;2.03;;;1.88;;
60468;SDS011;46316;47.582;10.238;2022-08-01T06:26:51;3.05;;;1.90;;
60468;SDS011;46316;47.582;10.238;2022-08-01T06:29:17;2.70;;;1.83;;
60468;SDS011;46316;47.582;10.238;2022-08-01T06:32:53;2.50;;;1.80;;
60468;SDS011;46316;47.582;10.238;2022-08-01T06:35:29;4.28;;;2.17;;
60468;SDS011;46316;47.582;10.238;2022-08-01T06:37:58;4.85;;;1.83;;
60468;SDS011;46316;47.582;10.238;2022-08-01T06:40:30;3.40;;;1.90;;
60468;SDS011;46316;47.582;10.238;2022-08-01T06:42:57;6.13;;;2.17;;
60468;SDS011;46316;47.582;10.238;2022-08-01T06:45:23;5.00;;;2.38;;
60468;SDS011;46316;47.582;10.238;2022-08-01T06:47:51;3.10;;;1.90;;
60468;SDS011;46316;47.582;10.238;2022-08-01T06:50:17;4.43;;;1.85;;
60468;SDS011;46316;47.582;10.238;2022-08-01T06:52:43;1.80;;;1.63;;
60468;SDS011;46316;47.582;10.238;2022-08-01T06:55:09;4.20;;;1.95;;
60468;SDS011;46316;47.582;10.238;2022-08-01T06:57:34;3.92;;;2.00;;
60468;SDS011;46316;47.582;10.238;2022-08-01T07:00:01;3.08;;;2.08;;
60468;SDS011;46316;47.582;10.238;2022-08-01T07:02:33;2.65;;;1.85;;
60468;SDS011;46316;47.582;10.238;2022-08-01T07:04:59;2.00;;;1.80;;
60468;SDS011;46316;47.582;10.238;2022-08-01T07:07:25;4.28;;;2.08;;
60468;SDS011;46316;47.582;10.238;2022-08-01T07:09:52;4.20;;;1.90;;
60468;SDS011;46316;47.582;10.238;2022-08-01T07:12:17;1.75;;;1.60;;
60468;SDS011;46316;47.582;10.238;2022-08-01T07:14:43;2.38;;;1.70;;
60468;SDS011;46316;47.582;10.238;2022-08-01T07:17:08;2.38;;;1.90;;
60468;SDS011;46316;47.582;10.238;2022-08-01T07:19:34;2.00;;;1.75;;
60468;SDS011;46316;47.582;10.238;2022-08-01T07:22:03;1.95;;;1.73;;
60468;SDS011;46316;47.582;10.238;2022-08-01T07:24:28;4.10;;;1.77;;
60468;SDS011;46316;47.582;10.238;2022-08-01T07:26:54;2.78;;;1.48;;
60468;SDS011;46316;47.582;10.238;2022-08-01T07:29:23;2.63;;;1.70;;
60468;SDS011;46316;47.582;10.238;2022-08-01T07:31:49;3.47;;;1.88;;
60468;SDS011;46316;47.582;10.238;2022-08-01T07:34:19;2.25;;;1.70;;
60468;SDS011;46316;47.582;10.238;2022-08-01T07:37:32;2.67;;;1.75;;
60468;SDS011;46316;47.582;10.238;2022-08-01T07:39:44;1.70;;;1.60;;
60468;SDS011;46316;47.582;10.238;2022-08-01T07:42:23;1.48;;;1.38;;
60468;SDS011;46316;47.582;10.238;2022-08-01T07:44:55;1.98;;;1.60;;
60468;SDS011;46316;47.582;10.238;2022-08-01T07:50:18;2.08;;;1.25;;
60468;SDS011;46316;47.582;10.238;2022-08-01T07:53:51;2.08;;;1.40;;
60468;SDS011;46316;47.582;10.238;2022-08-01T07:56:50;1.92;;;1.33;;
60468;SDS011;46316;47.582;10.238;2022-08-01T08:01:59;2.13;;;1.65;;
60468;SDS011;46316;47.582;10.238;2022-08-01T08:04:28;1.83;;;1.67;;
60468;SDS011;46316;47.582;10.238;2022-08-01T08:06:53;3.28;;;1.40;;
60468;SDS011;46316;47.582;10.238;2022-08-01T08:09:19;2.53;;;1.60;;
60468;SDS011;46316;47.582;10.238;2022-08-01T08:12:14;3.47;;;1.58;;
60468;SDS011;46316;47.582;10.238;2022-08-01T08:14:40;1.35;;;1.25;;
60468;SDS011;46316;47.582;10.238;2022-08-01T08:17:12;1.50;;;1.38;;
60468;SDS011;46316;47.582;10.238;2022-08-01T08:20:22;2.88;;;1.58;;
60468;SDS011;46316;47.582;10.238;2022-08-01T08:23:00;2.40;;;1.85;;
60468;SDS011;46316;47.582;10.238;2022-08-01T08:29:40;4.57;;;1.60;;
60468;SDS011;46316;47.582;10.238;2022-08-01T08:32:06;1.77;;;1.67;;
60468;SDS011;46316;47.582;10.238;2022-08-01T08:34:32;1.73;;;1.60;;
60468;SDS011;46316;47.582;10.238;2022-08-01T08:36:59;1.77;;;1.67;;
60468;SDS011;46316;47.582;10.238;2022-08-01T08:43:33;3.03;;;1.75;;
60468;SDS011;46316;47.582;10.238;2022-08-01T08:53:07;1.63;;;1.52;;
60468;SDS011;46316;47.582;10.238;2022-08-01T08:55:43;2.63;;;1.55;;
60468;SDS011;46316;47.582;10.238;2022-08-01T08:58:11;2.42;;;1.70;;
60468;SDS011;46316;47.582;10.238;2022-08-01T09:00:41;1.55;;;1.45;;
60468;SDS011;46316;47.582;10.238;2022-08-01T09:03:09;1.67;;;1.58;;
60468;SDS011;46316;47.582;10.238;2022-08-01T09:05:35;2.78;;;1.73;;
60468;SDS011;46316;47.582;10.238;2022-08-01T09:08:06;2.42;;;1.60;;
60468;SDS011;46316;47.582;10.238;2022-08-01T09:10:32;3.03;;;1.73;;
60468;SDS011;46316;47.582;10.238;2022-08-01T09:13:14;3.25;;;1.80;;
60468;SDS011;46316;47.582;10.238;2022-08-01T09:15:44;2.05;;;1.85;;
60468;SDS011;46316;47.582;10.238;2022-08-01T09:18:28;4.32;;;1.73;;
60468;SDS011;46316;47.582;10.238;2022-08-01T09:24:31;3.35;;;1.73;;
60468;SDS011;46316;47.582;10.238;2022-08-01T09:26:57;2.47;;;1.75;;
60468;SDS011;46316;47.582;10.238;2022-08-01T09:29:25;3.42;;;1.60;;
60468;SDS011;46316;47.582;10.238;2022-08-01T09:31:52;2.17;;;1.98;;
60468;SDS011;46316;47.582;10.238;2022-08-01T09:34:25;3.67;;;1.92;;
60468;SDS011;46316;47.582;10.238;2022-08-01T09:36:53;3.08;;;1.92;;
60468;SDS011;46316;47.582;10.238;2022-08-01T09:39:28;1.98;;;1.85;;
60468;SDS011;46316;47.582;10.238;2022-08-01T09:41:56;3.42;;;2.00;;
60468;SDS011;46316;47.582;10.238;2022-08-01T09:47:05;1.80;;;1.70;;
60468;SDS011;46316;47.582;10.238;2022-08-01T09:52:10;1.77;;;1.65;;
60468;SDS011;46316;47.582;10.238;2022-08-01T09:54:51;2.63;;;1.73;;
60468;SDS011;46316;47.582;10.238;2022-08-01T09:57:20;1.40;;;1.30;;
60468;SDS011;46316;47.582;10.238;2022-08-01T09:59:56;1.98;;;1.52;;
60468;SDS011;46316;47.582;10.238;2022-08-01T10:02:41;3.47;;;1.90;;
60468;SDS011;46316;47.582;10.238;2022-08-01T10:05:09;2.53;;;1.70;;
60468;SDS011;46316;47.582;10.238;2022-08-01T10:07:35;3.60;;;1.80;;
60468;SDS011;46316;47.582;10.238;2022-08-01T10:10:19;3.40;;;1.80;;
60468;SDS011;46316;47.582;10.238;2022-08-01T10:12:45;2.60;;;1.50;;
60468;SDS011;46316;47.582;10.238;2022-08-01T10:15:16;2.38;;;1.55;;
60468;SDS011;46316;47.582;10.238;2022-08-01T10:17:46;7.32;;;2.30;;
60468;SDS011;46316;47.582;10.238;2022-08-01T10:20:24;3.20;;;1.80;;
60468;SDS011;46316;47.582;10.238;2022-08-01T10:22:54;3.47;;;1.77;;
60468;SDS011;46316;47.582;10.238;2022-08-01T10:25:22;3.85;;;1.73;;
60468;SDS011;46316;47.582;10.238;2022-08-01T10:27:49;1.70;;;1.60;;
60468;SDS011;46316;47.582;10.238;2022-08-01T10:30:16;4.65;;;1.55;;
60468;SDS011;46316;47.582;10.238;2022-08-01T10:32:42;3.22;;;1.42;;
60468;SDS011;46316;47.582;10.238;2022-08-01T10:35:11;1.60;;;1.50;;
60468;SDS011;46316;47.582;10.238;2022-08-01T10:37:46;2.50;;;1.70;;
60468;SDS011;46316;47.582;10.238;2022-08-01T10:43:03;1.38;;;1.27;;
60468;SDS011;46316;47.582;10.238;2022-08-01T10:45:28;1.80;;;1.40;;
60468;SDS011;46316;47.582;10.238;2022-08-01T10:51:12;2.60;;;1.45;;
60468;SDS011;46316;47.582;10.238;2022-08-01T10:53:50;2.90;;;1.42;;
60468;SDS011;46316;47.582;10.238;2022-08-01T10:56:38;1.52;;;1.42;;
60468;SDS011;46316;47.582;10.238;2022-08-01T10:59:33;1.05;;;1.00;;
60468;SDS011;46316;47.582;10.238;2022-08-01T11:02:05;1.42;;;1.33;;
60468;SDS011;46316;47.582;10.238;2022-08-01T11:04:41;3.95;;;1.52;;
60468;SDS011;46316;47.582;10.238;2022-08-01T11:07:42;1.65;;;1.55;;
60468;SDS011;46316;47.582;10.238;2022-08-01T11:13:00;3.22;;;1.40;;
60468;SDS011;46316;47.582;10.238;2022-08-01T11:15:40;2.45;;;1.40;;
60468;SDS011;46316;47.582;10.238;2022-08-01T11:20:54;3.00;;;1.30;;
60468;SDS011;46316;47.582;10.238;2022-08-01T11:23:30;1.80;;;1.52;;
60468;SDS011;46316;47.582;10.238;2022-08-01T11:26:13;2.70;;;1.90;;
60468;SDS011;46316;47.582;10.238;2022-08-01T11:28:39;2.30;;;1.60;;
60468;SDS011;46316;47.582;10.238;2022-08-01T11:38:38;1.80;;;1.50;;
60468;SDS011;46316;47.582;10.238;2022-08-01T11:41:21;2.35;;;1.50;;
60468;SDS011;46316;47.582;10.238;2022-08-01T11:52:13;2.05;;;1.55;;
60468;SDS011;46316;47.582;10.238;2022-08-01T11:54:57;2.28;;;2.05;;
60468;SDS011;46316;47.582;10.238;2022-08-01T11:57:30;2.22;;;1.80;;
60468;SDS011;46316;47.582;10.238;2022-08-01T12:00:09;2.78;;;2.28;;
60468;SDS011;46316;47.582;10.238;2022-08-01T12:02:37;2.17;;;1.98;;
60468;SDS011;46316;47.582;10.238;2022-08-01T12:05:07;2.28;;;2.00;;
60468;SDS011;46316;47.582;10.238;2022-08-01T12:07:35;3.95;;;2.13;;
60468;SDS011;46316;47.582;10.238;2022-08-01T12:10:09;1.92;;;1.75;;
60468;SDS011;46316;47.582;10.238;2022-08-01T12:12:37;2.35;;;1.90;;
60468;SDS011;46316;47.582;10.238;2022-08-01T12:15:08;2.63;;;1.90;;
60468;SDS011;46316;47.582;10.238;2022-08-01T12:17:45;2.63;;;1.77;;
60468;SDS011;46316;47.582;10.238;2022-08-01T12:20:22;1.65;;;1.55;;
60468;SDS011;46316;47.582;10.238;2022-08-01T12:22:52;2.63;;;1.70;;
60468;SDS011;46316;47.582;10.238;2022-08-01T12:25:22;2.03;;;1.60;;
60468;SDS011;46316;47.582;10.238;2022-08-01T12:27:48;2.45;;;1.60;;
60468;SDS011;46316;47.582;10.238;2022-08-01T12:30:16;2.10;;;1.90;;
60468;SDS011;46316;47.582;10.238;2022-08-01T12:32:44;6.88;;;1.77;;
60468;SDS011;46316;47.582;10.238;2022-08-01T12:35:12;5.18;;;1.85;;
60468;SDS011;46316;47.582;10.238;2022-08-01T12:37:41;3.57;;;2.07;;
60468;SDS011;46316;47.582;10.238;2022-08-01T12:43:15;1.40;;;1.30;;
60468;SDS011;46316;47.582;10.238;2022-08-01T12:45:43;2.88;;;1.48;;
60468;SDS011;46316;47.582;10.238;2022-08-01T12:48:10;2.67;;;1.73;;
60468;SDS011;46316;47.582;10.238;2022-08-01T12:50:41;4.97;;;1.58;;
60468;SDS011;46316;47.582;10.238;2022-08-01T12:53:11;3.40;;;1.70;;
60468;SDS011;46316;47.582;10.238;2022-08-01T12:55:55;1.52;;;1.30;;
60468;SDS011;46316;47.582;10.238;2022-08-01T12:58:21;1.40;;;1.30;;
60468;SDS011;46316;47.582;10.238;2022-08-01T13:00:48;1.55;;;1.40;;
60468;SDS011;46316;47.582;10.238;2022-08-01T13:03:16;1.40;;;1.30;;
60468;SDS011;46316;47.582;10.238;2022-08-01T13:05:46;3.45;;;1.63;;
60468;SDS011;46316;47.582;10.238;2022-08-01T13:08:14;2.38;;;1.30;;
60468;SDS011;46316;47.582;10.238;2022-08-01T13:10:42;1.60;;;1.50;;
60468;SDS011;46316;47.582;10.238;2022-08-01T13:13:14;1.40;;;1.30;;
60468;SDS011;46316;47.582;10.238;2022-08-01T13:15:43;2.25;;;1.40;;
60468;SDS011;46316;47.582;10.238;2022-08-01T13:18:23;1.50;;;1.40;;
60468;SDS011;46316;47.582;10.238;2022-08-01T13:23:34;2.05;;;1.35;;
60468;SDS011;46316;47.582;10.238;2022-08-01T13:26:00;2.25;;;1.40;;
60468;SDS011;46316;47.582;10.238;2022-08-01T13:28:26;4.05;;;1.52;;
60468;SDS011;46316;47.582;10.238;2022-08-01T13:33:19;1.85;;;1.70;;
60468;SDS011;46316;47.582;10.238;2022-08-01T13:35:45;4.82;;;1.45;;
60468;SDS011;46316;47.582;10.238;2022-08-01T13:38:12;2.17;;;1.40;;
60468;SDS011;46316;47.582;10.238;2022-08-01T13:40:38;1.40;;;1.30;;
60468;SDS011;46316;47.582;10.238;2022-08-01T13:43:06;1.67;;;1.30;;
60468;SDS011;46316;47.582;10.238;2022-08-01T13:45:34;3.00;;;1.40;;
60468;SDS011;46316;47.582;10.238;2022-08-01T13:47:59;2.45;;;1.40;;
60468;SDS011;46316;47.582;10.238;2022-08-01T13:50:25;1.55;;;1.40;;
60468;SDS011;46316;47.582;10.238;2022-08-01T13:52:51;2.38;;;1.30;;
60468;SDS011;46316;47.582;10.238;2022-08-01T13:55:21;2.13;;;1.48;;
60468;SDS011;46316;47.582;10.238;2022-08-01T13:57:47;3.75;;;1.67;;
60468;SDS011;46316;47.582;10.238;2022-08-01T14:00:13;2.65;;;1.55;;
60468;SDS011;46316;47.582;10.238;2022-08-01T14:02:39;2.17;;;1.60;;
60468;SDS011;46316;47.582;10.238;2022-08-01T14:05:05;3.28;;;1.55;;
60468;SDS011;46316;47.582;10.238;2022-08-01T14:07:31;1.70;;;1.60;;
60468;SDS011;46316;47.582;10.238;2022-08-01T14:09:57;2.38;;;1.42;;
60468;SDS011;46316;47.582;10.238;2022-08-01T14:12:23;3.20;;;1.90;;
60468;SDS011;46316;47.582;10.238;2022-08-01T14:14:51;2.08;;;1.88;;
60468;SDS011;46316;47.582;10.238;2022-08-01T14:17:17;2.15;;;1.80;;
60468;SDS011;46316;47.582;10.238;2022-08-01T14:19:42;4.15;;;1.70;;
60468;SDS011;46316;47.582;10.238;2022-08-01T14:22:08;1.80;;;1.65;;
60468;SDS011;46316;47.582;10.238;2022-08-01T14:24:33;2.38;;;1.70;;
60468;SDS011;46316;47.582;10.238;2022-08-01T14:26:59;2.88;;;1.60;;
60468;SDS011;46316;47.582;10.238;2022-08-01T14:29:25;1.95;;;1.70;;
60468;SDS011;46316;47.582;10.238;2022-08-01T14:31:50;4.25;;;1.70;;
60468;SDS011;46316;47.582;10.238;2022-08-01T14:34:16;1.73;;;1.42;;
60468;SDS011;46316;47.582;10.238;2022-08-01T14:36:42;2.85;;;1.58;;
60468;SDS011;46316;47.582;10.238;2022-08-01T14:39:10;1.65;;;1.55;;
60468;SDS011;46316;47.582;10.238;2022-08-01T14:41:36;4.03;;;1.63;;
60468;SDS011;46316;47.582;10.238;2022-08-01T14:44:01;2.03;;;1.58;;
60468;SDS011;46316;47.582;10.238;2022-08-01T14:46:28;3.72;;;1.58;;
60468;SDS011;46316;47.582;10.238;2022-08-01T14:48:54;1.73;;;1.63;;
60468;SDS011;46316;47.582;10.238;2022-08-01T14:51:20;2.85;;;1.60;;
60468;SDS011;46316;47.582;10.238;2022-08-01T14:53:45;2.00;;;1.45;;
60468;SDS011;46316;47.582;10.238;2022-08-01T14:56:11;2.13;;;1.92;;
60468;SDS011;46316;47.582;10.238;2022-08-01T14:58:36;2.63;;;1.70;;
60468;SDS011;46316;47.582;10.238;2022-08-01T15:01:02;2.50;;;1.58;;
60468;SDS011;46316;47.582;10.238;2022-08-01T15:03:30;2.60;;;1.90;;
60468;SDS011;46316;47.582;10.238;2022-08-01T15:05:56;2.67;;;1.77;;
60468;SDS011;46316;47.582;10.238;2022-08-01T15:08:22;1.58;;;1.48;;
60468;SDS011;46316;47.582;10.238;2022-08-01T15:10:48;2.83;;;2.03;;
60468;SDS011;46316;47.582;10.238;2022-08-01T15:13:13;1.50;;;1.40;;
60468;SDS011;46316;47.582;10.238;2022-08-01T15:15:39;3.13;;;1.98;;
60468;SDS011;46316;47.582;10.238;2022-08-01T15:18:05;1.60;;;1.50;;
60468;SDS011;46316;47.582;10.238;2022-08-01T15:20:30;2.85;;;1.77;;
60468;SDS011;46316;47.582;10.238;2022-08-01T15:22:57;3.08;;;1.42;;
60468;SDS011;46316;47.582;10.238;2022-08-01T15:25:23;1.60;;;1.50;;
60468;SDS011;46316;47.582;10.238;2022-08-01T15:27:48;1.95;;;1.50;;
60468;SDS011;46316;47.582;10.238;2022-08-01T15:30:14;2.67;;;1.40;;
60468;SDS011;46316;47.582;10.238;2022-08-01T15:32:40;2.45;;;1.45;;
60468;SDS011;46316;47.582;10.238;2022-08-01T15:35:05;1.73;;;1.38;;
60468;SDS011;46316;47.582;10.238;2022-08-01T15:37:31;1.83;;;1.58;;
60468;SDS011;46316;47.582;10.238;2022-08-01T15:39:57;1.83;;;1.60;;
60468;SDS011;46316;47.582;10.238;2022-08-01T15:42:23;2.30;;;1.50;;
60468;SDS011;46316;47.582;10.238;2022-08-01T15:44:49;2.10;;;1.40;;
60468;SDS011;46316;47.582;10.238;2022-08-01T15:47:14;1.70;;;1.55;;
60468;SDS011;46316;47.582;10.238;2022-08-01T15:49:40;3.13;;;1.60;;
60468;SDS011;46316;47.582;10.238;2022-08-01T15:52:06;1.60;;;1.40;;
60468;SDS011;46316;47.582;10.238;2022-08-01T15:54:32;3.63;;;1.45;;
60468;SDS011;46316;47.582;10.238;2022-08-01T15:56:58;1.83;;;1.65;;
60468;SDS011;46316;47.582;10.238;2022-08-01T15:59:24;1.50;;;1.33;;
60468;SDS011;46316;47.582;10.238;2022-08-01T16:01:50;2.40;;;1.50;;
60468;SDS011;46316;47.582;10.238;2022-08-01T16:04:16;1.92;;;1.50;;